FIA6311 LUKK-LTAI
Flight info
| Callsign | FIA6311 |
|---|---|
| Flight time | N/A |
| Altitude | 34000 |
| Route | LIPTA T34 KODRU DCT GLT DCT PILAT DCT GOSLO/N0443F350 DCT RIXEN/N0448F370 UL620 IST UN616 OVACI UT69 BABSA |
| Aircraft | A320/M-SDE3FGHIRWY/LB1 |
Departure
| Time | 2026-05-01 15:14 |
|---|---|
| Airport | Chişinău International Airport (LUKK) |
Arrival
| Time | N/A |
|---|---|
| Airport | Antalya International Airport (LTAI) |
| Time | Latitude | Longitude | Altitude | Speed | Heading |
|---|---|---|---|---|---|
| 2026-05-01 14:39 | 46.93258 | 28.93744 | 321 ft | 0 kts | 97° |
| 2026-05-01 15:06 | 46.93258 | 28.93745 | 321 ft | 1 kts | 97° |
| 2026-05-01 15:06 | 46.93257 | 28.93767 | 321 ft | 3 kts | 97° |
| 2026-05-01 15:07 | 46.93254 | 28.93794 | 321 ft | 0 kts | 97° |
| 2026-05-01 15:07 | 46.93251 | 28.93805 | 321 ft | 1 kts | 114° |
| 2026-05-01 15:07 | 46.93239 | 28.93815 | 321 ft | 4 kts | 159° |
| 2026-05-01 15:07 | 46.93184 | 28.93809 | 321 ft | 11 kts | 187° |
| 2026-05-01 15:08 | 46.93124 | 28.93764 | 318 ft | 10 kts | 252° |
| 2026-05-01 15:08 | 46.93132 | 28.93653 | 322 ft | 14 kts | 277° |
| 2026-05-01 15:08 | 46.93148 | 28.93477 | 327 ft | 20 kts | 277° |
| 2026-05-01 15:08 | 46.93168 | 28.93246 | 324 ft | 26 kts | 276° |
| 2026-05-01 15:09 | 46.93193 | 28.92966 | 329 ft | 30 kts | 277° |
| 2026-05-01 15:09 | 46.93215 | 28.92662 | 332 ft | 29 kts | 275° |
| 2026-05-01 15:09 | 46.93241 | 28.92380 | 351 ft | 25 kts | 281° |
| 2026-05-01 15:09 | 46.93261 | 28.92162 | 361 ft | 19 kts | 275° |
| 2026-05-01 15:10 | 46.93245 | 28.92039 | 364 ft | 8 kts | 219° |
| 2026-05-01 15:10 | 46.93194 | 28.92018 | 366 ft | 0 kts | 193° |
| 2026-05-01 15:10 | 46.93184 | 28.92015 | 367 ft | 4 kts | 193° |
| 2026-05-01 15:11 | 46.93144 | 28.92001 | 369 ft | 7 kts | 193° |
| 2026-05-01 15:11 | 46.92994 | 28.91989 | 377 ft | 13 kts | 178° |
| 2026-05-01 15:11 | 46.92905 | 28.91992 | 380 ft | 0 kts | 178° |
| 2026-05-01 15:12 | 46.92904 | 28.91993 | 379 ft | 0 kts | 178° |
| 2026-05-01 15:12 | 46.92893 | 28.91993 | 380 ft | 0 kts | 178° |
| 2026-05-01 15:12 | 46.92891 | 28.91993 | 380 ft | 1 kts | 178° |
| 2026-05-01 15:13 | 46.92760 | 28.92138 | 377 ft | 16 kts | 89° |
| 2026-05-01 15:14 | 46.92794 | 28.93583 | 331 ft | 136 kts | 88° |
| 2026-05-01 15:14 | 46.92811 | 28.95137 | 660 ft | 155 kts | 87° |
| 2026-05-01 15:14 | 46.92878 | 28.98257 | 2005 ft | 153 kts | 86° |
| 2026-05-01 15:15 | 46.92452 | 29.01309 | 3086 ft | 164 kts | 127° |
| 2026-05-01 15:15 | 46.90313 | 29.01487 | 3876 ft | 189 kts | 223° |
| 2026-05-01 15:16 | 46.88208 | 28.98660 | 4504 ft | 226 kts | 224° |
| 2026-05-01 15:16 | 46.85683 | 28.95343 | 5405 ft | 263 kts | 223° |
| 2026-05-01 15:17 | 46.82847 | 28.91708 | 6969 ft | 275 kts | 222° |
| 2026-05-01 15:18 | 46.78424 | 28.86094 | 9387 ft | 287 kts | 222° |
| 2026-05-01 15:18 | 46.76910 | 28.84178 | 10143 ft | 290 kts | 222° |
| 2026-05-01 15:19 | 46.71935 | 28.77871 | 11538 ft | 336 kts | 222° |
| 2026-05-01 15:19 | 46.68368 | 28.73358 | 12946 ft | 343 kts | 222° |
| 2026-05-01 15:19 | 46.66554 | 28.71070 | 13610 ft | 347 kts | 222° |
| 2026-05-01 15:20 | 46.62755 | 28.67212 | 14822 ft | 356 kts | 201° |
| 2026-05-01 15:20 | 46.60415 | 28.65997 | 15445 ft | 359 kts | 200° |
| 2026-05-01 15:20 | 46.58051 | 28.64774 | 16057 ft | 362 kts | 201° |
| 2026-05-01 15:21 | 46.55700 | 28.63411 | 16663 ft | 365 kts | 203° |
| 2026-05-01 15:21 | 46.53362 | 28.61939 | 17247 ft | 368 kts | 205° |
| 2026-05-01 15:21 | 46.51046 | 28.60427 | 17812 ft | 371 kts | 205° |
| 2026-05-01 15:21 | 46.48682 | 28.58867 | 18364 ft | 375 kts | 205° |
| 2026-05-01 15:22 | 46.43886 | 28.55753 | 19448 ft | 381 kts | 204° |
| 2026-05-01 15:22 | 46.41449 | 28.54208 | 19978 ft | 383 kts | 204° |
| 2026-05-01 15:22 | 46.38992 | 28.52665 | 20503 ft | 386 kts | 204° |
| 2026-05-01 15:23 | 46.36520 | 28.51114 | 21004 ft | 389 kts | 204° |
| 2026-05-01 15:23 | 46.34029 | 28.49554 | 21490 ft | 391 kts | 204° |
| 2026-05-01 15:23 | 46.31522 | 28.47986 | 21958 ft | 394 kts | 204° |
| 2026-05-01 15:23 | 46.28999 | 28.46405 | 22424 ft | 396 kts | 204° |
| 2026-05-01 15:24 | 46.26461 | 28.44813 | 22869 ft | 399 kts | 204° |
| 2026-05-01 15:24 | 46.23906 | 28.43211 | 23308 ft | 401 kts | 205° |
| 2026-05-01 15:24 | 46.21335 | 28.41602 | 23738 ft | 404 kts | 205° |
| 2026-05-01 15:24 | 46.18751 | 28.39988 | 24164 ft | 406 kts | 205° |
| 2026-05-01 15:25 | 46.16150 | 28.38366 | 24572 ft | 409 kts | 204° |
| 2026-05-01 15:25 | 46.13533 | 28.36734 | 24972 ft | 411 kts | 204° |
| 2026-05-01 15:25 | 46.10899 | 28.35091 | 25363 ft | 413 kts | 204° |
| 2026-05-01 15:25 | 46.08257 | 28.33451 | 25759 ft | 415 kts | 204° |
| 2026-05-01 15:26 | 46.05598 | 28.31807 | 26125 ft | 417 kts | 204° |
| 2026-05-01 15:26 | 46.02929 | 28.30160 | 26252 ft | 418 kts | 204° |
| 2026-05-01 15:26 | 46.00258 | 28.28515 | 26277 ft | 417 kts | 204° |
| 2026-05-01 15:26 | 45.97590 | 28.26873 | 26275 ft | 417 kts | 204° |
| 2026-05-01 15:27 | 45.94918 | 28.25231 | 26448 ft | 419 kts | 204° |
| 2026-05-01 15:27 | 45.92236 | 28.23587 | 26833 ft | 421 kts | 204° |
| 2026-05-01 15:27 | 45.89534 | 28.21931 | 27191 ft | 423 kts | 204° |
| 2026-05-01 15:28 | 45.84099 | 28.18594 | 27870 ft | 427 kts | 204° |
| 2026-05-01 15:28 | 45.81367 | 28.16915 | 28197 ft | 429 kts | 204° |
| 2026-05-01 15:28 | 45.78652 | 28.15251 | 28509 ft | 430 kts | 204° |
| 2026-05-01 15:29 | 45.73120 | 28.11871 | 29125 ft | 434 kts | 204° |
| 2026-05-01 15:29 | 45.70337 | 28.10176 | 29424 ft | 436 kts | 204° |
| 2026-05-01 15:29 | 45.64723 | 28.06762 | 30006 ft | 440 kts | 204° |
| 2026-05-01 15:30 | 45.59987 | 28.03885 | 30459 ft | 443 kts | 204° |
| 2026-05-01 15:31 | 45.47588 | 27.96389 | 31458 ft | 452 kts | 201° |
| 2026-05-01 15:31 | 45.41401 | 27.95334 | 32057 ft | 454 kts | 168° |
| 2026-05-01 15:32 | 45.36452 | 27.97799 | 32505 ft | 455 kts | 162° |
| 2026-05-01 15:32 | 45.30287 | 27.99800 | 33085 ft | 454 kts | 172° |
| 2026-05-01 15:33 | 45.20891 | 28.01555 | 33972 ft | 453 kts | 172° |
| 2026-05-01 15:34 | 45.11561 | 28.03765 | 34821 ft | 453 kts | 170° |